| time (UTC) | temp F | wind direction | speed MPH | gust MPH | rain 1hr in | rain 24hr in | rain mn in | humidity % | barometer mb |
| 20260506214530 | 60 | 242 | 5.0 | 14.0 | 0.00 | 0.00 | 0.00 | 70 | 1020.6 |
| 20260506213028 | 61 | 224 | 4.0 | 10.0 | 0.00 | 0.00 | 0.00 | 68 | 1020.6 |
| 20260506211527 | 60 | 194 | 3.0 | 12.0 | 0.00 | 0.00 | 0.00 | 71 | 1020.5 |
| 20260506210030 | 58 | 172 | 4.0 | 9.0 | 0.00 | 0.00 | 0.00 | 75 | 1020.6 |
| 20260506204535 | 58 | 0 | 3.0 | 8.0 | 0.00 | 0.00 | 0.00 | 77 | 1020.6 |
| 20260506203028 | 57 | 288 | 3.0 | 14.0 | 0.00 | 0.00 | 0.00 | 78 | 1020.6 |
| 20260506201528 | 57 | 296 | 3.0 | 12.0 | 0.00 | 0.00 | 0.00 | 79 | 1020.5 |
| 20260506200030 | 57 | 190 | 1.0 | 9.0 | 0.00 | 0.00 | 0.00 | 79 | 1020.6 |
| 20260506194535 | 57 | 201 | 3.0 | 10.0 | 0.00 | 0.00 | 0.00 | 80 | 1020.4 |
| 20260506193030 | 56 | 219 | 2.0 | 10.0 | 0.00 | 0.00 | 0.00 | 81 | 1020.5 |
| 20260506191530 | 55 | 225 | 1.0 | 6.0 | 0.00 | 0.00 | 0.00 | 83 | 1020.4 |
| 20260506190027 | 55 | 242 | 2.0 | 13.0 | 0.00 | 0.00 | 0.00 | 84 | 1020.5 |
| 20260506184530 | 55 | 199 | 3.0 | 9.0 | 0.00 | 0.00 | 0.00 | 84 | 1020.5 |
| 20260506183030 | 55 | 143 | 4.0 | 14.0 | 0.00 | 0.00 | 0.00 | 85 | 1020.1 |
| 20260506181530 | 54 | 199 | 1.0 | 9.0 | 0.00 | 0.00 | 0.00 | 86 | 1020.2 |
| 20260506180030 | 54 | 0 | 1.0 | 7.0 | 0.00 | 0.00 | 0.00 | 87 | 1020.3 |
| 20260506174529 | 54 | 132 | 2.0 | 8.0 | 0.00 | 0.00 | 0.00 | 87 | 1020.2 |
| 20260506173030 | 53 | 163 | 1.0 | 5.0 | 0.00 | 0.00 | 0.00 | 88 | 1020.4 |
| 20260506171530 | 53 | 209 | 1.0 | 8.0 | 0.00 | 0.00 | 0.00 | 88 | 1020.3 |
| 20260506170029 | 53 | 267 | 1.0 | 7.0 | 0.00 | 0.00 | 0.00 | 89 | 1020.3 |
| 20260506164528 | 52 | 153 | 2.0 | 8.0 | 0.00 | 0.00 | 0.00 | 89 | 1020.2 |
| 20260506163030 | 52 | 203 | 2.0 | 5.0 | 0.00 | 0.00 | 0.00 | 89 | 1020.2 |
| 20260506161532 | 52 | 209 | 1.0 | 6.0 | 0.00 | 0.00 | 0.00 | 90 | 1020.1 |
| 20260506160038 | 52 | 215 | 1.0 | 5.0 | 0.00 | 0.00 | 0.00 | 90 | 1020.2 |
| 20260506154532 | 51 | 210 | 1.0 | 6.0 | 0.00 | 0.00 | 0.00 | 90 | 1020.0 |
| 20260506153029 | 52 | 174 | 0.0 | 5.0 | 0.00 | 0.00 | 0.00 | 91 | 1019.9 |
| 20260506151532 | 51 | 249 | 0.0 | 3.0 | 0.00 | 0.00 | 0.00 | 91 | 1019.9 |
| 20260506150029 | 51 | 215 | 0.0 | 5.0 | 0.00 | 0.00 | 0.00 | 90 | 1020.0 |
| 20260506144527 | 51 | 243 | 1.0 | 4.0 | 0.00 | 0.00 | 0.00 | 90 | 1019.6 |
| 20260506143033 | 51 | 213 | 2.0 | 5.0 | 0.00 | 0.00 | 0.00 | 90 | 1019.4 |
| 20260506141528 | 51 | 230 | 1.0 | 4.0 | 0.00 | 0.00 | 0.00 | 90 | 1019.5 |
| 20260506140030 | 51 | 0 | 1.0 | 5.0 | 0.00 | 0.00 | 0.00 | 90 | 1019.5 |
| 20260506134530 | 51 | 204 | 4.0 | 7.0 | 0.00 | 0.00 | 0.00 | 90 | 1019.5 |
| 20260506133030 | 51 | 0 | 1.0 | 4.0 | 0.00 | 0.00 | 0.00 | 90 | 1019.4 |
| 20260506131543 | 51 | 0 | 0.0 | 4.0 | 0.00 | 0.00 | 0.00 | 90 | 1019.2 |
| 20260506130037 | 52 | 223 | 2.0 | 4.0 | 0.00 | 0.00 | 0.00 | 90 | 1019.1 |
| 20260506124531 | 52 | 0 | 1.0 | 6.0 | 0.00 | 0.00 | 0.00 | 89 | 1018.9 |
| 20260506123028 | 52 | 238 | 1.0 | 4.0 | 0.00 | 0.00 | 0.00 | 89 | 1018.8 |
| 20260506121530 | 52 | 227 | 2.0 | 6.0 | 0.00 | 0.00 | 0.00 | 89 | 1018.7 |
| 20260506120028 | 52 | 248 | 1.0 | 4.0 | 0.00 | 0.00 | 0.00 | 90 | 1018.6 |
| 20260506114528 | 52 | 0 | 0.0 | 4.0 | 0.00 | 0.00 | 0.00 | 90 | 1018.6 |
| 20260506113030 | 52 | 192 | 0.0 | 2.0 | 0.00 | 0.00 | 0.00 | 90 | 1018.7 |
| 20260506111532 | 52 | 0 | 0.0 | 2.0 | 0.00 | 0.00 | 0.00 | 90 | 1018.6 |
| 20260506110028 | 52 | 0 | 0.0 | 3.0 | 0.00 | 0.00 | 0.00 | 90 | 1018.5 |
| 20260506104530 | 52 | 0 | 0.0 | 4.0 | 0.00 | 0.00 | 0.00 | 90 | 1018.4 |
| 20260506103037 | 52 | 0 | 0.0 | 3.0 | 0.00 | 0.00 | 0.00 | 91 | 1018.2 |
| 20260506101528 | 52 | 0 | 0.0 | 2.0 | 0.00 | 0.00 | 0.00 | 91 | 1018.0 |
| 20260506100035 | 52 | 0 | 0.0 | 0.0 | 0.00 | 0.00 | 0.00 | 91 | 1017.8 |
| 20260506094535 | 51 | 0 | 0.0 | 0.0 | 0.00 | 0.00 | 0.00 | 92 | 1017.8 |
| 20260506093035 | 51 | 0 | 0.0 | 0.0 | 0.00 | 0.00 | 0.00 | 92 | 1017.6 |
| 20260506091531 | 50 | 0 | 0.0 | 0.0 | 0.00 | 0.00 | 0.00 | 91 | 1017.8 |
| 20260506090028 | 50 | 0 | 0.0 | 0.0 | 0.00 | 0.00 | 0.00 | 91 | 1017.7 |
| 20260506083030 | 49 | 0 | 0.0 | 0.0 | 0.00 | 0.00 | 0.00 | 91 | 1017.5 |
| 20260506081533 | 49 | 0 | 0.0 | 0.0 | 0.00 | 0.00 | 0.00 | 90 | 1017.6 |
| 20260506073028 | 50 | 0 | 0.0 | 0.0 | 0.00 | 0.00 | 0.00 | 89 | 1017.4 |
| 20260506071529 | 50 | 0 | 0.0 | 0.0 | 0.00 | 0.00 | 0.00 | 89 | 1017.3 |
| 20260506061528 | 52 | 0 | 0.0 | 0.0 | 0.00 | 0.00 | 0.00 | 88 | 1016.6 |
| 20260506044527 | 55 | 0 | 0.0 | 0.0 | 0.00 | 0.00 | 0.00 | 84 | 1016.2 |
| 20260506043029 | 56 | 0 | 0.0 | 0.0 | 0.00 | 0.00 | 0.00 | 83 | 1016.0 |
| 20260506041528 | 57 | 0 | 0.0 | 0.0 | 0.00 | 0.00 | 0.00 | 82 | 1015.8 |
| 20260506040028 | 58 | 0 | 0.0 | 0.0 | 0.00 | 0.00 | 0.00 | 80 | 1015.8 |
| 20260506034528 | 59 | 0 | 0.0 | 0.0 | 0.00 | 0.00 | 0.00 | 79 | 1015.6 |
| 20260506033029 | 60 | 0 | 0.0 | 0.0 | 0.00 | 0.00 | 0.00 | 77 | 1015.4 |
| 20260506031530 | 61 | 0 | 0.0 | 2.0 | 0.00 | 0.00 | 0.00 | 76 | 1015.2 |
| 20260506030035 | 62 | 182 | 1.0 | 3.0 | 0.00 | 0.00 | 0.00 | 74 | 1015.2 |
| 20260506024541 | 63 | 231 | 0.0 | 4.0 | 0.00 | 0.00 | 0.00 | 73 | 1015.2 |
| 20260506023030 | 63 | 192 | 1.0 | 5.0 | 0.00 | 0.00 | 0.00 | 72 | 1015.2 |
| 20260506021530 | 64 | 232 | 2.0 | 5.0 | 0.00 | 0.00 | 0.00 | 71 | 1015.1 |
| 20260506020030 | 64 | 0 | 1.0 | 7.0 | 0.00 | 0.00 | 0.00 | 70 | 1015.0 |
| 20260506014535 | 65 | 0 | 2.0 | 7.0 | 0.00 | 0.00 | 0.00 | 67 | 1015.1 |
| 20260506013028 | 66 | 215 | 2.0 | 6.0 | 0.00 | 0.00 | 0.00 | 66 | 1015.0 |
| 20260506011530 | 66 | 0 | 2.0 | 6.0 | 0.00 | 0.00 | 0.00 | 68 | 1015.0 |
| 20260506010033 | 66 | 233 | 3.0 | 7.0 | 0.00 | 0.00 | 0.00 | 66 | 1015.1 |
| 20260506004530 | 67 | 207 | 3.0 | 6.0 | 0.00 | 0.00 | 0.00 | 67 | 1015.1 |
| 20260506003033 | 66 | 206 | 2.0 | 7.0 | 0.00 | 0.00 | 0.00 | 66 | 1015.1 |
| 20260506001532 | 66 | 241 | 2.0 | 6.0 | 0.00 | 0.00 | 0.00 | 67 | 1015.2 |
| 20260506000028 | 66 | 298 | 2.0 | 6.0 | 0.00 | 0.00 | 0.00 | 66 | 1015.3 |
| 20260505234534 | 65 | 265 | 0.0 | 8.0 | 0.00 | 0.00 | 0.00 | 67 | 1015.5 |
| 20260505233027 | 65 | 278 | 2.0 | 7.0 | 0.00 | 0.00 | 0.00 | 68 | 1015.6 |
| 20260505231529 | 65 | 202 | 3.0 | 10.0 | 0.00 | 0.00 | 0.00 | 71 | 1015.6 |
| 20260505230046 | 64 | 263 | 0.0 | 6.0 | 0.00 | 0.00 | 0.00 | 70 | 1015.8 |
| 20260505224529 | 63 | 213 | 1.0 | 8.0 | 0.00 | 0.00 | 0.00 | 72 | 1016.0 |
| 20260505223031 | 63 | 213 | 3.0 | 10.0 | 0.00 | 0.00 | 0.00 | 71 | 1016.2 |
| 20260505221529 | 64 | 71 | 0.0 | 8.0 | 0.00 | 0.00 | 0.00 | 71 | 1016.2 |
| 20260505220033 | 63 | 109 | 1.0 | 7.0 | 0.00 | 0.00 | 0.00 | 72 | 1016.2 |